sensor_id;sensor_type;location;lat;lon;timestamp;P1;durP1;ratioP1;P2;durP2;ratioP2
21505;SDS011;10914;48.886;9.394;2022-12-26T00:00:59;25.77;;;24.42;;
21505;SDS011;10914;48.886;9.394;2022-12-26T00:03:25;26.38;;;24.77;;
21505;SDS011;10914;48.886;9.394;2022-12-26T00:05:51;25.75;;;24.35;;
21505;SDS011;10914;48.886;9.394;2022-12-26T00:08:16;25.65;;;24.30;;
21505;SDS011;10914;48.886;9.394;2022-12-26T00:10:41;25.95;;;24.55;;
21505;SDS011;10914;48.886;9.394;2022-12-26T00:13:07;26.02;;;24.48;;
21505;SDS011;10914;48.886;9.394;2022-12-26T00:15:32;25.57;;;24.07;;
21505;SDS011;10914;48.886;9.394;2022-12-26T00:17:57;26.27;;;24.88;;
21505;SDS011;10914;48.886;9.394;2022-12-26T00:20:22;25.63;;;24.33;;
21505;SDS011;10914;48.886;9.394;2022-12-26T00:22:47;25.48;;;24.17;;
21505;SDS011;10914;48.886;9.394;2022-12-26T00:25:12;26.47;;;25.07;;
21505;SDS011;10914;48.886;9.394;2022-12-26T00:27:38;26.20;;;24.90;;
21505;SDS011;10914;48.886;9.394;2022-12-26T00:30:03;25.85;;;24.55;;
21505;SDS011;10914;48.886;9.394;2022-12-26T00:32:28;27.00;;;25.48;;
21505;SDS011;10914;48.886;9.394;2022-12-26T00:34:53;26.43;;;25.13;;
21505;SDS011;10914;48.886;9.394;2022-12-26T00:37:19;26.57;;;24.93;;
21505;SDS011;10914;48.886;9.394;2022-12-26T00:39:44;25.90;;;24.50;;
21505;SDS011;10914;48.886;9.394;2022-12-26T00:42:09;25.80;;;24.40;;
21505;SDS011;10914;48.886;9.394;2022-12-26T00:44:34;26.10;;;24.63;;
21505;SDS011;10914;48.886;9.394;2022-12-26T00:46:59;25.63;;;24.33;;
21505;SDS011;10914;48.886;9.394;2022-12-26T00:49:25;25.60;;;24.10;;
21505;SDS011;10914;48.886;9.394;2022-12-26T00:51:50;25.92;;;24.52;;
21505;SDS011;10914;48.886;9.394;2022-12-26T00:54:15;25.77;;;24.38;;
21505;SDS011;10914;48.886;9.394;2022-12-26T00:56:40;25.63;;;24.25;;
21505;SDS011;10914;48.886;9.394;2022-12-26T00:59:05;25.50;;;24.20;;
21505;SDS011;10914;48.886;9.394;2022-12-26T01:01:31;25.83;;;24.38;;
21505;SDS011;10914;48.886;9.394;2022-12-26T01:03:56;25.50;;;24.08;;
21505;SDS011;10914;48.886;9.394;2022-12-26T01:06:24;26.63;;;25.13;;
21505;SDS011;10914;48.886;9.394;2022-12-26T01:08:49;26.70;;;25.30;;
21505;SDS011;10914;48.886;9.394;2022-12-26T01:11:15;26.05;;;24.75;;
21505;SDS011;10914;48.886;9.394;2022-12-26T01:14:00;24.88;;;23.58;;
21505;SDS011;10914;48.886;9.394;2022-12-26T01:16:25;26.40;;;25.00;;
21505;SDS011;10914;48.886;9.394;2022-12-26T01:18:51;26.33;;;24.93;;
21505;SDS011;10914;48.886;9.394;2022-12-26T01:21:16;26.52;;;25.23;;
21505;SDS011;10914;48.886;9.394;2022-12-26T01:23:41;26.02;;;24.73;;
21505;SDS011;10914;48.886;9.394;2022-12-26T01:26:06;26.63;;;25.23;;
21505;SDS011;10914;48.886;9.394;2022-12-26T01:28:32;27.33;;;25.80;;
21505;SDS011;10914;48.886;9.394;2022-12-26T01:31:01;26.55;;;25.15;;
21505;SDS011;10914;48.886;9.394;2022-12-26T01:33:28;27.33;;;25.83;;
21505;SDS011;10914;48.886;9.394;2022-12-26T01:35:54;27.73;;;26.27;;
21505;SDS011;10914;48.886;9.394;2022-12-26T01:38:22;26.63;;;25.20;;
21505;SDS011;10914;48.886;9.394;2022-12-26T01:40:48;26.33;;;24.88;;
21505;SDS011;10914;48.886;9.394;2022-12-26T01:46:18;26.92;;;25.45;;
21505;SDS011;10914;48.886;9.394;2022-12-26T01:48:46;26.42;;;25.05;;
21505;SDS011;10914;48.886;9.394;2022-12-26T01:51:11;26.92;;;25.35;;
21505;SDS011;10914;48.886;9.394;2022-12-26T01:53:42;26.20;;;24.90;;
21505;SDS011;10914;48.886;9.394;2022-12-26T01:56:11;26.88;;;25.40;;
21505;SDS011;10914;48.886;9.394;2022-12-26T01:58:38;26.90;;;25.52;;
21505;SDS011;10914;48.886;9.394;2022-12-26T02:01:06;27.05;;;25.45;;
21505;SDS011;10914;48.886;9.394;2022-12-26T02:03:33;26.77;;;25.17;;
21505;SDS011;10914;48.886;9.394;2022-12-26T02:06:19;26.77;;;25.27;;
21505;SDS011;10914;48.886;9.394;2022-12-26T02:08:45;26.88;;;25.45;;
21505;SDS011;10914;48.886;9.394;2022-12-26T02:13:42;26.20;;;24.83;;
21505;SDS011;10914;48.886;9.394;2022-12-26T02:16:08;25.85;;;24.45;;
21505;SDS011;10914;48.886;9.394;2022-12-26T02:18:34;25.75;;;24.35;;
21505;SDS011;10914;48.886;9.394;2022-12-26T02:21:07;27.30;;;25.75;;
21505;SDS011;10914;48.886;9.394;2022-12-26T02:34:22;26.33;;;24.92;;
21505;SDS011;10914;48.886;9.394;2022-12-26T02:36:56;26.38;;;25.08;;
21505;SDS011;10914;48.886;9.394;2022-12-26T02:39:38;27.02;;;25.70;;
21505;SDS011;10914;48.886;9.394;2022-12-26T02:47:52;27.25;;;25.85;;
21505;SDS011;10914;48.886;9.394;2022-12-26T02:50:31;27.80;;;26.20;;
21505;SDS011;10914;48.886;9.394;2022-12-26T02:53:23;27.30;;;25.90;;
21505;SDS011;10914;48.886;9.394;2022-12-26T02:56:17;26.92;;;25.52;;
21505;SDS011;10914;48.886;9.394;2022-12-26T02:59:04;27.52;;;26.02;;
21505;SDS011;10914;48.886;9.394;2022-12-26T03:01:49;27.30;;;25.80;;
21505;SDS011;10914;48.886;9.394;2022-12-26T03:04:35;26.58;;;25.20;;
21505;SDS011;10914;48.886;9.394;2022-12-26T03:07:20;27.50;;;26.10;;
21505;SDS011;10914;48.886;9.394;2022-12-26T03:10:19;27.02;;;25.63;;
21505;SDS011;10914;48.886;9.394;2022-12-26T03:13:48;27.60;;;26.20;;
21505;SDS011;10914;48.886;9.394;2022-12-26T03:15:55;28.08;;;26.67;;
21505;SDS011;10914;48.886;9.394;2022-12-26T03:18:48;27.60;;;26.13;;
21505;SDS011;10914;48.886;9.394;2022-12-26T03:21:15;26.73;;;25.33;;
21505;SDS011;10914;48.886;9.394;2022-12-26T03:23:43;27.70;;;26.30;;
21505;SDS011;10914;48.886;9.394;2022-12-26T03:26:11;26.60;;;25.30;;
21505;SDS011;10914;48.886;9.394;2022-12-26T03:28:57;27.52;;;26.13;;
21505;SDS011;10914;48.886;9.394;2022-12-26T03:31:42;26.83;;;25.30;;
21505;SDS011;10914;48.886;9.394;2022-12-26T03:34:07;25.48;;;24.17;;
21505;SDS011;10914;48.886;9.394;2022-12-26T03:42:26;26.15;;;24.65;;
21505;SDS011;10914;48.886;9.394;2022-12-26T03:51:05;25.63;;;24.33;;
21505;SDS011;10914;48.886;9.394;2022-12-26T03:53:51;25.73;;;24.33;;
21505;SDS011;10914;48.886;9.394;2022-12-26T03:56:39;26.20;;;24.80;;
21505;SDS011;10914;48.886;9.394;2022-12-26T04:00:08;26.30;;;24.90;;
21505;SDS011;10914;48.886;9.394;2022-12-26T04:02:32;25.73;;;24.33;;
21505;SDS011;10914;48.886;9.394;2022-12-26T04:05:17;26.33;;;24.90;;
21505;SDS011;10914;48.886;9.394;2022-12-26T04:08:02;26.08;;;24.67;;
21505;SDS011;10914;48.886;9.394;2022-12-26T04:10:50;26.02;;;24.63;;
21505;SDS011;10914;48.886;9.394;2022-12-26T04:16:20;26.10;;;24.70;;
21505;SDS011;10914;48.886;9.394;2022-12-26T04:24:43;26.67;;;25.27;;
21505;SDS011;10914;48.886;9.394;2022-12-26T04:27:31;26.45;;;25.05;;
21505;SDS011;10914;48.886;9.394;2022-12-26T04:30:15;27.58;;;25.88;;
21505;SDS011;10914;48.886;9.394;2022-12-26T04:33:02;26.48;;;25.10;;
21505;SDS011;10914;48.886;9.394;2022-12-26T04:38:34;26.75;;;25.45;;
21505;SDS011;10914;48.886;9.394;2022-12-26T04:41:18;26.98;;;25.58;;
21505;SDS011;10914;48.886;9.394;2022-12-26T04:44:03;26.35;;;24.77;;
21505;SDS011;10914;48.886;9.394;2022-12-26T04:46:32;27.27;;;25.83;;
21505;SDS011;10914;48.886;9.394;2022-12-26T04:48:58;26.40;;;25.00;;
21505;SDS011;10914;48.886;9.394;2022-12-26T04:51:42;26.15;;;24.75;;
21505;SDS011;10914;48.886;9.394;2022-12-26T04:54:07;26.20;;;24.88;;
21505;SDS011;10914;48.886;9.394;2022-12-26T04:56:33;26.35;;;24.95;;
21505;SDS011;10914;48.886;9.394;2022-12-26T04:58:59;26.65;;;25.25;;
21505;SDS011;10914;48.886;9.394;2022-12-26T05:01:24;26.45;;;25.15;;
21505;SDS011;10914;48.886;9.394;2022-12-26T05:04:15;27.05;;;25.65;;
21505;SDS011;10914;48.886;9.394;2022-12-26T05:06:59;26.40;;;25.00;;
21505;SDS011;10914;48.886;9.394;2022-12-26T05:09:45;27.20;;;25.70;;
21505;SDS011;10914;48.886;9.394;2022-12-26T05:12:10;26.60;;;25.23;;
21505;SDS011;10914;48.886;9.394;2022-12-26T05:14:35;26.27;;;24.97;;
21505;SDS011;10914;48.886;9.394;2022-12-26T05:17:04;26.20;;;24.80;;
21505;SDS011;10914;48.886;9.394;2022-12-26T05:19:49;26.77;;;25.35;;
21505;SDS011;10914;48.886;9.394;2022-12-26T05:22:33;26.52;;;25.15;;
21505;SDS011;10914;48.886;9.394;2022-12-26T05:25:20;27.30;;;25.60;;
21505;SDS011;10914;48.886;9.394;2022-12-26T05:28:09;27.02;;;25.48;;
21505;SDS011;10914;48.886;9.394;2022-12-26T05:30:53;26.67;;;25.33;;
21505;SDS011;10914;48.886;9.394;2022-12-26T05:33:18;26.63;;;25.27;;
21505;SDS011;10914;48.886;9.394;2022-12-26T05:36:02;26.80;;;25.35;;
21505;SDS011;10914;48.886;9.394;2022-12-26T05:38:27;26.50;;;25.10;;
21505;SDS011;10914;48.886;9.394;2022-12-26T05:40:53;25.90;;;24.60;;
21505;SDS011;10914;48.886;9.394;2022-12-26T05:43:18;27.07;;;25.67;;
21505;SDS011;10914;48.886;9.394;2022-12-26T05:45:43;26.42;;;25.13;;
21505;SDS011;10914;48.886;9.394;2022-12-26T05:48:09;26.60;;;25.30;;
21505;SDS011;10914;48.886;9.394;2022-12-26T05:50:34;28.07;;;26.67;;
21505;SDS011;10914;48.886;9.394;2022-12-26T05:52:59;28.00;;;26.40;;
21505;SDS011;10914;48.886;9.394;2022-12-26T05:55:24;28.00;;;26.60;;
21505;SDS011;10914;48.886;9.394;2022-12-26T05:57:50;26.15;;;24.75;;
21505;SDS011;10914;48.886;9.394;2022-12-26T06:00:15;27.13;;;25.80;;
21505;SDS011;10914;48.886;9.394;2022-12-26T06:02:40;26.58;;;25.17;;
21505;SDS011;10914;48.886;9.394;2022-12-26T06:05:05;26.80;;;25.40;;
21505;SDS011;10914;48.886;9.394;2022-12-26T06:07:31;26.17;;;24.60;;
21505;SDS011;10914;48.886;9.394;2022-12-26T06:09:56;25.95;;;24.65;;
21505;SDS011;10914;48.886;9.394;2022-12-26T06:12:21;26.52;;;25.23;;
21505;SDS011;10914;48.886;9.394;2022-12-26T06:14:46;26.60;;;25.20;;
21505;SDS011;10914;48.886;9.394;2022-12-26T06:17:12;26.95;;;25.55;;
21505;SDS011;10914;48.886;9.394;2022-12-26T06:19:39;26.55;;;25.25;;
21505;SDS011;10914;48.886;9.394;2022-12-26T06:22:04;26.58;;;25.08;;
21505;SDS011;10914;48.886;9.394;2022-12-26T06:24:29;25.70;;;24.17;;
21505;SDS011;10914;48.886;9.394;2022-12-26T06:26:55;25.80;;;24.50;;
21505;SDS011;10914;48.886;9.394;2022-12-26T06:29:20;25.08;;;23.77;;
21505;SDS011;10914;48.886;9.394;2022-12-26T06:31:45;26.23;;;24.83;;
21505;SDS011;10914;48.886;9.394;2022-12-26T06:34:10;25.07;;;23.80;;
21505;SDS011;10914;48.886;9.394;2022-12-26T06:36:36;24.83;;;23.50;;
21505;SDS011;10914;48.886;9.394;2022-12-26T06:39:02;26.17;;;24.80;;
21505;SDS011;10914;48.886;9.394;2022-12-26T06:41:27;27.48;;;26.02;;
21505;SDS011;10914;48.886;9.394;2022-12-26T06:43:52;27.50;;;26.10;;
21505;SDS011;10914;48.886;9.394;2022-12-26T06:46:19;27.60;;;26.10;;
21505;SDS011;10914;48.886;9.394;2022-12-26T06:48:44;27.92;;;26.50;;
21505;SDS011;10914;48.886;9.394;2022-12-26T06:51:10;28.20;;;26.77;;
21505;SDS011;10914;48.886;9.394;2022-12-26T06:53:36;28.83;;;27.23;;
21505;SDS011;10914;48.886;9.394;2022-12-26T06:56:43;26.40;;;24.90;;
21505;SDS011;10914;48.886;9.394;2022-12-26T06:58:53;26.35;;;24.77;;
21505;SDS011;10914;48.886;9.394;2022-12-26T07:01:19;26.63;;;25.23;;
21505;SDS011;10914;48.886;9.394;2022-12-26T07:03:44;26.48;;;24.95;;
21505;SDS011;10914;48.886;9.394;2022-12-26T07:06:20;27.77;;;26.38;;
21505;SDS011;10914;48.886;9.394;2022-12-26T07:08:46;27.35;;;25.77;;
21505;SDS011;10914;48.886;9.394;2022-12-26T07:11:12;26.83;;;25.38;;
21505;SDS011;10914;48.886;9.394;2022-12-26T07:13:37;26.63;;;25.33;;
21505;SDS011;10914;48.886;9.394;2022-12-26T07:16:03;26.50;;;25.17;;
21505;SDS011;10914;48.886;9.394;2022-12-26T07:18:29;26.80;;;25.25;;
21505;SDS011;10914;48.886;9.394;2022-12-26T07:20:54;27.70;;;26.30;;
21505;SDS011;10914;48.886;9.394;2022-12-26T07:23:19;26.83;;;25.42;;
21505;SDS011;10914;48.886;9.394;2022-12-26T07:25:45;27.60;;;26.10;;
21505;SDS011;10914;48.886;9.394;2022-12-26T07:28:11;27.15;;;25.75;;
21505;SDS011;10914;48.886;9.394;2022-12-26T07:30:36;27.67;;;26.07;;
21505;SDS011;10914;48.886;9.394;2022-12-26T07:33:01;29.35;;;27.85;;
21505;SDS011;10914;48.886;9.394;2022-12-26T07:35:27;29.50;;;28.00;;
21505;SDS011;10914;48.886;9.394;2022-12-26T07:37:54;26.80;;;25.30;;
21505;SDS011;10914;48.886;9.394;2022-12-26T07:40:20;27.67;;;26.17;;
21505;SDS011;10914;48.886;9.394;2022-12-26T07:42:45;26.60;;;25.20;;
21505;SDS011;10914;48.886;9.394;2022-12-26T07:45:10;27.90;;;26.30;;
21505;SDS011;10914;48.886;9.394;2022-12-26T07:47:35;27.17;;;25.80;;
21505;SDS011;10914;48.886;9.394;2022-12-26T07:50:00;27.43;;;25.83;;
21505;SDS011;10914;48.886;9.394;2022-12-26T07:52:25;27.80;;;26.20;;
21505;SDS011;10914;48.886;9.394;2022-12-26T07:54:51;27.02;;;25.70;;
21505;SDS011;10914;48.886;9.394;2022-12-26T07:57:16;27.83;;;26.42;;
21505;SDS011;10914;48.886;9.394;2022-12-26T07:59:41;27.50;;;26.00;;
21505;SDS011;10914;48.886;9.394;2022-12-26T08:02:08;28.85;;;27.35;;
21505;SDS011;10914;48.886;9.394;2022-12-26T08:04:34;26.90;;;25.50;;
21505;SDS011;10914;48.886;9.394;2022-12-26T08:06:59;27.77;;;26.23;;
21505;SDS011;10914;48.886;9.394;2022-12-26T08:09:25;27.73;;;26.10;;
21505;SDS011;10914;48.886;9.394;2022-12-26T08:11:50;27.00;;;25.52;;
21505;SDS011;10914;48.886;9.394;2022-12-26T08:14:16;27.85;;;26.45;;
21505;SDS011;10914;48.886;9.394;2022-12-26T08:16:41;27.17;;;25.77;;
21505;SDS011;10914;48.886;9.394;2022-12-26T08:19:07;26.17;;;24.77;;
21505;SDS011;10914;48.886;9.394;2022-12-26T08:21:32;27.77;;;26.17;;
21505;SDS011;10914;48.886;9.394;2022-12-26T08:23:58;26.80;;;25.20;;
21505;SDS011;10914;48.886;9.394;2022-12-26T08:26:23;26.40;;;25.00;;
21505;SDS011;10914;48.886;9.394;2022-12-26T08:28:49;26.07;;;24.67;;
21505;SDS011;10914;48.886;9.394;2022-12-26T08:31:16;25.58;;;24.17;;
21505;SDS011;10914;48.886;9.394;2022-12-26T08:33:41;26.95;;;25.45;;
21505;SDS011;10914;48.886;9.394;2022-12-26T08:36:09;26.35;;;24.85;;
21505;SDS011;10914;48.886;9.394;2022-12-26T08:38:36;27.23;;;25.63;;
21505;SDS011;10914;48.886;9.394;2022-12-26T08:43:29;24.73;;;23.42;;
21505;SDS011;10914;48.886;9.394;2022-12-26T08:45:58;25.30;;;23.70;;
21505;SDS011;10914;48.886;9.394;2022-12-26T08:48:23;25.65;;;24.15;;
21505;SDS011;10914;48.886;9.394;2022-12-26T08:50:53;25.80;;;24.30;;
21505;SDS011;10914;48.886;9.394;2022-12-26T08:53:20;25.48;;;24.17;;
21505;SDS011;10914;48.886;9.394;2022-12-26T08:55:46;26.00;;;24.60;;
21505;SDS011;10914;48.886;9.394;2022-12-26T08:58:11;25.75;;;24.35;;
21505;SDS011;10914;48.886;9.394;2022-12-26T09:00:36;26.42;;;25.02;;
21505;SDS011;10914;48.886;9.394;2022-12-26T09:03:02;25.70;;;24.33;;
21505;SDS011;10914;48.886;9.394;2022-12-26T09:05:28;26.45;;;24.85;;
21505;SDS011;10914;48.886;9.394;2022-12-26T09:07:54;25.27;;;23.88;;
21505;SDS011;10914;48.886;9.394;2022-12-26T09:10:24;26.10;;;24.70;;
21505;SDS011;10914;48.886;9.394;2022-12-26T09:12:49;25.73;;;24.25;;
21505;SDS011;10914;48.886;9.394;2022-12-26T09:15:18;27.33;;;25.65;;
21505;SDS011;10914;48.886;9.394;2022-12-26T09:17:44;28.70;;;26.95;;
21505;SDS011;10914;48.886;9.394;2022-12-26T09:20:10;32.83;;;30.98;;
21505;SDS011;10914;48.886;9.394;2022-12-26T09:22:37;28.10;;;26.23;;
21505;SDS011;10914;48.886;9.394;2022-12-26T09:25:16;33.60;;;31.52;;
21505;SDS011;10914;48.886;9.394;2022-12-26T09:27:41;35.95;;;33.70;;
21505;SDS011;10914;48.886;9.394;2022-12-26T09:30:07;37.53;;;35.22;;
21505;SDS011;10914;48.886;9.394;2022-12-26T09:32:35;39.83;;;37.42;;
21505;SDS011;10914;48.886;9.394;2022-12-26T09:35:02;43.67;;;41.25;;
21505;SDS011;10914;48.886;9.394;2022-12-26T09:37:28;43.15;;;40.58;;
21505;SDS011;10914;48.886;9.394;2022-12-26T09:39:53;39.40;;;37.00;;
21505;SDS011;10914;48.886;9.394;2022-12-26T09:42:39;35.17;;;33.07;;
21505;SDS011;10914;48.886;9.394;2022-12-26T09:45:13;34.63;;;32.10;;
21505;SDS011;10914;48.886;9.394;2022-12-26T09:50:11;47.63;;;44.45;;
21505;SDS011;10914;48.886;9.394;2022-12-26T09:55:33;42.13;;;39.53;;
21505;SDS011;10914;48.886;9.394;2022-12-26T10:00:36;41.10;;;38.70;;
21505;SDS011;10914;48.886;9.394;2022-12-26T10:03:02;37.72;;;35.33;;
21505;SDS011;10914;48.886;9.394;2022-12-26T10:05:35;39.22;;;36.55;;
21505;SDS011;10914;48.886;9.394;2022-12-26T10:08:09;40.50;;;38.05;;
21505;SDS011;10914;48.886;9.394;2022-12-26T10:10:42;37.38;;;35.22;;
21505;SDS011;10914;48.886;9.394;2022-12-26T10:13:25;36.40;;;34.30;;
21505;SDS011;10914;48.886;9.394;2022-12-26T10:15:56;44.95;;;41.75;;
21505;SDS011;10914;48.886;9.394;2022-12-26T10:18:34;38.33;;;35.75;;
21505;SDS011;10914;48.886;9.394;2022-12-26T10:23:34;34.13;;;31.92;;
21505;SDS011;10914;48.886;9.394;2022-12-26T10:26:22;33.30;;;31.20;;
21505;SDS011;10914;48.886;9.394;2022-12-26T10:31:17;36.00;;;33.80;;
21505;SDS011;10914;48.886;9.394;2022-12-26T10:33:44;29.73;;;27.83;;
21505;SDS011;10914;48.886;9.394;2022-12-26T10:36:16;31.75;;;29.85;;
21505;SDS011;10914;48.886;9.394;2022-12-26T10:38:44;32.05;;;30.17;;
21505;SDS011;10914;48.886;9.394;2022-12-26T10:41:58;32.47;;;30.23;;
21505;SDS011;10914;48.886;9.394;2022-12-26T10:44:03;33.17;;;30.90;;
21505;SDS011;10914;48.886;9.394;2022-12-26T10:49:04;33.30;;;31.05;;
21505;SDS011;10914;48.886;9.394;2022-12-26T10:51:29;32.42;;;30.33;;
21505;SDS011;10914;48.886;9.394;2022-12-26T10:53:55;30.02;;;28.13;;
21505;SDS011;10914;48.886;9.394;2022-12-26T10:56:22;28.08;;;26.40;;
21505;SDS011;10914;48.886;9.394;2022-12-26T10:59:07;29.27;;;27.23;;
21505;SDS011;10914;48.886;9.394;2022-12-26T11:01:36;29.35;;;27.45;;
21505;SDS011;10914;48.886;9.394;2022-12-26T11:04:07;28.75;;;27.10;;
21505;SDS011;10914;48.886;9.394;2022-12-26T11:06:39;30.92;;;28.83;;
21505;SDS011;10914;48.886;9.394;2022-12-26T11:09:05;30.25;;;28.38;;
21505;SDS011;10914;48.886;9.394;2022-12-26T11:11:31;32.17;;;30.13;;
21505;SDS011;10914;48.886;9.394;2022-12-26T11:14:29;32.58;;;30.52;;
21505;SDS011;10914;48.886;9.394;2022-12-26T11:16:56;32.13;;;29.92;;
21505;SDS011;10914;48.886;9.394;2022-12-26T11:19:25;32.70;;;30.60;;
21505;SDS011;10914;48.886;9.394;2022-12-26T11:21:52;31.13;;;29.27;;
21505;SDS011;10914;48.886;9.394;2022-12-26T11:24:19;32.92;;;30.80;;
21505;SDS011;10914;48.886;9.394;2022-12-26T11:26:48;30.75;;;29.02;;
21505;SDS011;10914;48.886;9.394;2022-12-26T11:29:20;32.20;;;30.38;;
21505;SDS011;10914;48.886;9.394;2022-12-26T11:32:00;32.67;;;30.80;;
21505;SDS011;10914;48.886;9.394;2022-12-26T11:36:51;38.40;;;36.00;;
21505;SDS011;10914;48.886;9.394;2022-12-26T11:39:21;36.08;;;34.03;;
21505;SDS011;10914;48.886;9.394;2022-12-26T11:41:48;34.63;;;32.72;;
21505;SDS011;10914;48.886;9.394;2022-12-26T11:44:19;34.85;;;32.80;;
21505;SDS011;10914;48.886;9.394;2022-12-26T11:49:57;41.42;;;38.85;;
21505;SDS011;10914;48.886;9.394;2022-12-26T11:54:49;33.85;;;31.83;;
21505;SDS011;10914;48.886;9.394;2022-12-26T11:57:20;36.10;;;33.92;;
21505;SDS011;10914;48.886;9.394;2022-12-26T11:59:46;34.35;;;32.47;;
21505;SDS011;10914;48.886;9.394;2022-12-26T12:02:20;38.67;;;36.35;;
21505;SDS011;10914;48.886;9.394;2022-12-26T12:04:48;33.13;;;31.38;;
21505;SDS011;10914;48.886;9.394;2022-12-26T12:09:49;36.72;;;34.67;;
21505;SDS011;10914;48.886;9.394;2022-12-26T12:12:24;33.78;;;31.77;;
21505;SDS011;10914;48.886;9.394;2022-12-26T12:27:41;35.55;;;33.67;;
21505;SDS011;10914;48.886;9.394;2022-12-26T12:32:47;31.70;;;29.90;;
21505;SDS011;10914;48.886;9.394;2022-12-26T12:40:50;28.98;;;27.48;;
21505;SDS011;10914;48.886;9.394;2022-12-26T12:46:14;30.17;;;28.58;;
21505;SDS011;10914;48.886;9.394;2022-12-26T12:51:25;32.67;;;30.77;;
21505;SDS011;10914;48.886;9.394;2022-12-26T13:04:00;35.35;;;33.25;;
21505;SDS011;10914;48.886;9.394;2022-12-26T13:06:28;33.00;;;31.00;;
21505;SDS011;10914;48.886;9.394;2022-12-26T13:09:06;32.05;;;30.17;;
21505;SDS011;10914;48.886;9.394;2022-12-26T13:11:40;31.05;;;29.33;;
21505;SDS011;10914;48.886;9.394;2022-12-26T13:16:37;32.95;;;31.15;;
21505;SDS011;10914;48.886;9.394;2022-12-26T13:19:29;32.00;;;30.20;;
21505;SDS011;10914;48.886;9.394;2022-12-26T13:21:56;31.13;;;29.48;;
21505;SDS011;10914;48.886;9.394;2022-12-26T13:31:56;33.22;;;31.52;;
21505;SDS011;10914;48.886;9.394;2022-12-26T13:34:21;31.85;;;30.15;;
21505;SDS011;10914;48.886;9.394;2022-12-26T13:36:48;30.10;;;28.60;;
21505;SDS011;10914;48.886;9.394;2022-12-26T13:41:45;31.65;;;30.15;;
21505;SDS011;10914;48.886;9.394;2022-12-26T13:44:29;32.60;;;31.10;;
21505;SDS011;10914;48.886;9.394;2022-12-26T13:46:57;32.75;;;31.15;;
21505;SDS011;10914;48.886;9.394;2022-12-26T13:49:38;33.20;;;31.63;;
21505;SDS011;10914;48.886;9.394;2022-12-26T13:54:36;35.15;;;33.45;;
21505;SDS011;10914;48.886;9.394;2022-12-26T14:00:20;33.47;;;31.85;;
21505;SDS011;10914;48.886;9.394;2022-12-26T14:07:40;33.47;;;31.90;;
21505;SDS011;10914;48.886;9.394;2022-12-26T14:16:04;32.97;;;31.30;;
21505;SDS011;10914;48.886;9.394;2022-12-26T14:20:45;36.10;;;34.45;;
21505;SDS011;10914;48.886;9.394;2022-12-26T14:23:24;36.03;;;34.40;;
21505;SDS011;10914;48.886;9.394;2022-12-26T14:28:21;37.77;;;36.07;;
21505;SDS011;10914;48.886;9.394;2022-12-26T14:31:10;38.45;;;36.58;;
21505;SDS011;10914;48.886;9.394;2022-12-26T14:33:57;34.17;;;32.65;;
21505;SDS011;10914;48.886;9.394;2022-12-26T14:36:43;34.90;;;33.25;;
21505;SDS011;10914;48.886;9.394;2022-12-26T14:39:19;34.40;;;32.70;;
21505;SDS011;10914;48.886;9.394;2022-12-26T14:42:13;36.17;;;34.47;;
21505;SDS011;10914;48.886;9.394;2022-12-26T14:44:59;33.58;;;32.05;;
21505;SDS011;10914;48.886;9.394;2022-12-26T14:47:45;34.60;;;32.92;;
21505;SDS011;10914;48.886;9.394;2022-12-26T14:58:23;35.22;;;33.53;;
21505;SDS011;10914;48.886;9.394;2022-12-26T15:00:49;36.28;;;34.50;;
21505;SDS011;10914;48.886;9.394;2022-12-26T15:13:47;37.65;;;35.72;;
21505;SDS011;10914;48.886;9.394;2022-12-26T15:16:30;34.63;;;33.00;;
21505;SDS011;10914;48.886;9.394;2022-12-26T15:29:44;30.50;;;29.05;;
21505;SDS011;10914;48.886;9.394;2022-12-26T15:32:18;30.98;;;29.50;;
21505;SDS011;10914;48.886;9.394;2022-12-26T15:34:53;30.73;;;29.20;;
21505;SDS011;10914;48.886;9.394;2022-12-26T15:40:15;31.65;;;30.15;;
21505;SDS011;10914;48.886;9.394;2022-12-26T15:42:48;33.13;;;31.52;;
21505;SDS011;10914;48.886;9.394;2022-12-26T15:47:46;32.25;;;30.70;;
21505;SDS011;10914;48.886;9.394;2022-12-26T15:55:44;29.67;;;28.30;;
21505;SDS011;10914;48.886;9.394;2022-12-26T15:58:20;28.48;;;27.08;;
21505;SDS011;10914;48.886;9.394;2022-12-26T16:00:50;27.98;;;26.63;;
21505;SDS011;10914;48.886;9.394;2022-12-26T16:03:18;30.38;;;28.77;;
21505;SDS011;10914;48.886;9.394;2022-12-26T16:05:48;28.58;;;27.17;;
21505;SDS011;10914;48.886;9.394;2022-12-26T16:08:24;29.45;;;28.00;;
21505;SDS011;10914;48.886;9.394;2022-12-26T16:13:41;34.72;;;33.05;;
21505;SDS011;10914;48.886;9.394;2022-12-26T16:16:12;33.95;;;32.28;;
21505;SDS011;10914;48.886;9.394;2022-12-26T16:18:46;33.05;;;31.50;;
21505;SDS011;10914;48.886;9.394;2022-12-26T16:21:11;35.17;;;33.55;;
21505;SDS011;10914;48.886;9.394;2022-12-26T16:23:55;32.17;;;30.58;;
21505;SDS011;10914;48.886;9.394;2022-12-26T16:26:22;34.60;;;32.85;;
21505;SDS011;10914;48.886;9.394;2022-12-26T16:28:49;32.83;;;31.25;;
21505;SDS011;10914;48.886;9.394;2022-12-26T16:31:16;33.67;;;32.10;;
21505;SDS011;10914;48.886;9.394;2022-12-26T16:33:42;33.42;;;31.83;;
21505;SDS011;10914;48.886;9.394;2022-12-26T16:36:10;31.48;;;29.92;;
21505;SDS011;10914;48.886;9.394;2022-12-26T16:38:38;30.98;;;29.45;;
21505;SDS011;10914;48.886;9.394;2022-12-26T16:41:16;30.75;;;29.30;;
21505;SDS011;10914;48.886;9.394;2022-12-26T16:43:42;30.55;;;29.02;;
21505;SDS011;10914;48.886;9.394;2022-12-26T16:46:08;32.90;;;31.27;;
21505;SDS011;10914;48.886;9.394;2022-12-26T16:48:35;30.10;;;28.65;;
21505;SDS011;10914;48.886;9.394;2022-12-26T16:51:02;29.42;;;28.08;;
21505;SDS011;10914;48.886;9.394;2022-12-26T16:58:43;27.75;;;26.35;;
21505;SDS011;10914;48.886;9.394;2022-12-26T17:01:10;29.23;;;27.73;;
21505;SDS011;10914;48.886;9.394;2022-12-26T17:03:46;32.45;;;30.92;;
21505;SDS011;10914;48.886;9.394;2022-12-26T17:06:15;31.60;;;30.10;;
21505;SDS011;10914;48.886;9.394;2022-12-26T17:08:45;30.40;;;28.83;;
21505;SDS011;10914;48.886;9.394;2022-12-26T17:11:11;30.33;;;28.92;;
21505;SDS011;10914;48.886;9.394;2022-12-26T17:13:37;31.50;;;29.60;;
21505;SDS011;10914;48.886;9.394;2022-12-26T17:16:04;31.58;;;29.90;;
21505;SDS011;10914;48.886;9.394;2022-12-26T17:18:44;31.30;;;29.75;;
21505;SDS011;10914;48.886;9.394;2022-12-26T17:21:30;29.92;;;28.38;;
21505;SDS011;10914;48.886;9.394;2022-12-26T17:26:35;29.52;;;28.05;;
21505;SDS011;10914;48.886;9.394;2022-12-26T17:29:00;29.38;;;27.88;;
21505;SDS011;10914;48.886;9.394;2022-12-26T17:33:55;28.38;;;26.98;;
21505;SDS011;10914;48.886;9.394;2022-12-26T17:36:21;28.38;;;26.88;;
21505;SDS011;10914;48.886;9.394;2022-12-26T17:38:49;27.27;;;25.88;;
21505;SDS011;10914;48.886;9.394;2022-12-26T17:41:15;28.27;;;26.77;;
21505;SDS011;10914;48.886;9.394;2022-12-26T17:43:41;29.48;;;27.77;;
21505;SDS011;10914;48.886;9.394;2022-12-26T17:46:07;27.42;;;25.92;;
21505;SDS011;10914;48.886;9.394;2022-12-26T17:48:33;27.75;;;26.20;;
21505;SDS011;10914;48.886;9.394;2022-12-26T17:50:59;32.90;;;31.10;;
21505;SDS011;10914;48.886;9.394;2022-12-26T17:53:27;29.58;;;27.65;;
21505;SDS011;10914;48.886;9.394;2022-12-26T17:55:54;31.30;;;29.42;;
21505;SDS011;10914;48.886;9.394;2022-12-26T17:58:20;33.88;;;31.42;;